sensor_id;sensor_type;location;lat;lon;timestamp;P1;durP1;ratioP1;P2;durP2;ratioP2
43248;SDS011;29216;51.248;6.808;2023-05-28T00:01:36;10.50;;;6.32;;
43248;SDS011;29216;51.248;6.808;2023-05-28T00:04:01;13.38;;;7.03;;
43248;SDS011;29216;51.248;6.808;2023-05-28T00:06:27;12.52;;;6.88;;
43248;SDS011;29216;51.248;6.808;2023-05-28T00:08:53;13.45;;;7.35;;
43248;SDS011;29216;51.248;6.808;2023-05-28T00:11:19;16.08;;;8.10;;
43248;SDS011;29216;51.248;6.808;2023-05-28T00:13:46;19.73;;;7.75;;
43248;SDS011;29216;51.248;6.808;2023-05-28T00:16:12;11.73;;;6.53;;
43248;SDS011;29216;51.248;6.808;2023-05-28T00:18:38;14.65;;;7.43;;
43248;SDS011;29216;51.248;6.808;2023-05-28T00:21:04;13.40;;;7.60;;
43248;SDS011;29216;51.248;6.808;2023-05-28T00:23:30;13.73;;;7.28;;
43248;SDS011;29216;51.248;6.808;2023-05-28T00:25:56;14.98;;;6.75;;
43248;SDS011;29216;51.248;6.808;2023-05-28T00:28:22;14.98;;;7.70;;
43248;SDS011;29216;51.248;6.808;2023-05-28T00:30:48;9.60;;;6.38;;
43248;SDS011;29216;51.248;6.808;2023-05-28T00:33:14;13.73;;;6.63;;
43248;SDS011;29216;51.248;6.808;2023-05-28T00:35:40;10.80;;;6.55;;
43248;SDS011;29216;51.248;6.808;2023-05-28T00:38:06;12.38;;;6.25;;
43248;SDS011;29216;51.248;6.808;2023-05-28T00:40:32;10.93;;;5.95;;
43248;SDS011;29216;51.248;6.808;2023-05-28T00:42:58;9.32;;;5.28;;
43248;SDS011;29216;51.248;6.808;2023-05-28T00:45:25;11.27;;;5.35;;
43248;SDS011;29216;51.248;6.808;2023-05-28T00:47:51;8.45;;;5.68;;
43248;SDS011;29216;51.248;6.808;2023-05-28T00:50:17;10.73;;;5.90;;
43248;SDS011;29216;51.248;6.808;2023-05-28T00:52:45;9.68;;;5.90;;
43248;SDS011;29216;51.248;6.808;2023-05-28T00:55:15;9.50;;;5.40;;
43248;SDS011;29216;51.248;6.808;2023-05-28T00:57:42;9.32;;;5.68;;
43248;SDS011;29216;51.248;6.808;2023-05-28T01:00:08;10.20;;;5.53;;
43248;SDS011;29216;51.248;6.808;2023-05-28T01:02:34;8.27;;;4.97;;
43248;SDS011;29216;51.248;6.808;2023-05-28T01:05:01;11.63;;;6.07;;
43248;SDS011;29216;51.248;6.808;2023-05-28T01:07:27;13.25;;;5.72;;
43248;SDS011;29216;51.248;6.808;2023-05-28T01:09:54;9.70;;;5.55;;
43248;SDS011;29216;51.248;6.808;2023-05-28T01:12:19;10.25;;;5.40;;
43248;SDS011;29216;51.248;6.808;2023-05-28T01:14:46;13.10;;;5.07;;
43248;SDS011;29216;51.248;6.808;2023-05-28T01:17:13;8.02;;;5.30;;
43248;SDS011;29216;51.248;6.808;2023-05-28T01:19:40;10.05;;;5.70;;
43248;SDS011;29216;51.248;6.808;2023-05-28T01:22:07;8.93;;;5.25;;
43248;SDS011;29216;51.248;6.808;2023-05-28T01:24:34;10.05;;;5.18;;
43248;SDS011;29216;51.248;6.808;2023-05-28T01:27:04;10.25;;;5.93;;
43248;SDS011;29216;51.248;6.808;2023-05-28T01:29:30;9.68;;;5.45;;
43248;SDS011;29216;51.248;6.808;2023-05-28T01:31:56;9.65;;;5.45;;
43248;SDS011;29216;51.248;6.808;2023-05-28T01:34:22;11.95;;;5.22;;
43248;SDS011;29216;51.248;6.808;2023-05-28T01:37:00;12.95;;;5.82;;
43248;SDS011;29216;51.248;6.808;2023-05-28T01:39:27;10.70;;;5.43;;
43248;SDS011;29216;51.248;6.808;2023-05-28T01:41:56;11.48;;;5.47;;
43248;SDS011;29216;51.248;6.808;2023-05-28T01:44:22;9.70;;;5.40;;
43248;SDS011;29216;51.248;6.808;2023-05-28T01:46:49;8.30;;;5.60;;
43248;SDS011;29216;51.248;6.808;2023-05-28T01:49:18;9.45;;;5.65;;
43248;SDS011;29216;51.248;6.808;2023-05-28T01:51:45;9.60;;;5.20;;
43248;SDS011;29216;51.248;6.808;2023-05-28T01:54:11;11.38;;;5.53;;
43248;SDS011;29216;51.248;6.808;2023-05-28T01:56:37;9.45;;;5.00;;
43248;SDS011;29216;51.248;6.808;2023-05-28T01:59:03;12.43;;;5.82;;
43248;SDS011;29216;51.248;6.808;2023-05-28T02:03:58;14.15;;;6.22;;
43248;SDS011;29216;51.248;6.808;2023-05-28T02:06:26;8.93;;;5.30;;
43248;SDS011;29216;51.248;6.808;2023-05-28T02:08:53;9.73;;;4.95;;
43248;SDS011;29216;51.248;6.808;2023-05-28T02:11:19;10.55;;;5.45;;
43248;SDS011;29216;51.248;6.808;2023-05-28T02:13:46;8.40;;;5.10;;
43248;SDS011;29216;51.248;6.808;2023-05-28T02:16:13;11.70;;;5.22;;
43248;SDS011;29216;51.248;6.808;2023-05-28T02:18:42;12.13;;;5.78;;
43248;SDS011;29216;51.248;6.808;2023-05-28T02:21:08;10.80;;;5.75;;
43248;SDS011;29216;51.248;6.808;2023-05-28T02:23:35;8.35;;;5.10;;
43248;SDS011;29216;51.248;6.808;2023-05-28T02:26:00;8.60;;;4.95;;
43248;SDS011;29216;51.248;6.808;2023-05-28T02:28:27;9.85;;;5.80;;
43248;SDS011;29216;51.248;6.808;2023-05-28T02:30:53;10.85;;;5.22;;
43248;SDS011;29216;51.248;6.808;2023-05-28T02:33:20;9.57;;;5.10;;
43248;SDS011;29216;51.248;6.808;2023-05-28T02:35:47;10.13;;;6.05;;
43248;SDS011;29216;51.248;6.808;2023-05-28T02:38:13;9.32;;;5.90;;
43248;SDS011;29216;51.248;6.808;2023-05-28T02:40:39;10.05;;;5.78;;
43248;SDS011;29216;51.248;6.808;2023-05-28T02:43:05;11.27;;;5.55;;
43248;SDS011;29216;51.248;6.808;2023-05-28T02:45:31;13.90;;;5.72;;
43248;SDS011;29216;51.248;6.808;2023-05-28T02:47:57;11.43;;;5.80;;
43248;SDS011;29216;51.248;6.808;2023-05-28T02:50:23;10.93;;;5.93;;
43248;SDS011;29216;51.248;6.808;2023-05-28T02:52:48;9.23;;;5.63;;
43248;SDS011;29216;51.248;6.808;2023-05-28T02:55:15;10.48;;;5.68;;
43248;SDS011;29216;51.248;6.808;2023-05-28T02:57:41;8.90;;;5.22;;
43248;SDS011;29216;51.248;6.808;2023-05-28T03:00:07;8.88;;;4.80;;
43248;SDS011;29216;51.248;6.808;2023-05-28T03:02:36;9.13;;;6.20;;
43248;SDS011;29216;51.248;6.808;2023-05-28T03:05:02;18.83;;;5.85;;
43248;SDS011;29216;51.248;6.808;2023-05-28T03:07:29;11.95;;;5.38;;
43248;SDS011;29216;51.248;6.808;2023-05-28T03:09:56;10.40;;;5.05;;
43248;SDS011;29216;51.248;6.808;2023-05-28T03:12:22;9.50;;;5.93;;
43248;SDS011;29216;51.248;6.808;2023-05-28T03:14:48;8.82;;;5.60;;
43248;SDS011;29216;51.248;6.808;2023-05-28T03:17:14;10.93;;;5.45;;
43248;SDS011;29216;51.248;6.808;2023-05-28T03:19:40;11.80;;;6.05;;
43248;SDS011;29216;51.248;6.808;2023-05-28T03:22:06;11.45;;;5.40;;
43248;SDS011;29216;51.248;6.808;2023-05-28T03:24:32;9.48;;;5.20;;
43248;SDS011;29216;51.248;6.808;2023-05-28T03:27:00;10.60;;;5.85;;
43248;SDS011;29216;51.248;6.808;2023-05-28T03:29:26;8.27;;;5.38;;
43248;SDS011;29216;51.248;6.808;2023-05-28T03:31:52;9.45;;;5.43;;
43248;SDS011;29216;51.248;6.808;2023-05-28T03:34:18;8.75;;;5.53;;
43248;SDS011;29216;51.248;6.808;2023-05-28T03:36:45;8.20;;;4.97;;
43248;SDS011;29216;51.248;6.808;2023-05-28T03:39:11;8.35;;;5.10;;
43248;SDS011;29216;51.248;6.808;2023-05-28T03:41:37;11.48;;;4.97;;
43248;SDS011;29216;51.248;6.808;2023-05-28T03:44:04;10.07;;;5.45;;
43248;SDS011;29216;51.248;6.808;2023-05-28T03:46:30;10.07;;;5.63;;
43248;SDS011;29216;51.248;6.808;2023-05-28T03:48:56;8.10;;;5.25;;
43248;SDS011;29216;51.248;6.808;2023-05-28T03:51:22;10.25;;;6.60;;
43248;SDS011;29216;51.248;6.808;2023-05-28T03:53:48;8.63;;;4.85;;
43248;SDS011;29216;51.248;6.808;2023-05-28T03:56:14;10.43;;;5.47;;
43248;SDS011;29216;51.248;6.808;2023-05-28T03:58:40;10.05;;;5.38;;
43248;SDS011;29216;51.248;6.808;2023-05-28T04:01:06;9.13;;;5.78;;
43248;SDS011;29216;51.248;6.808;2023-05-28T04:03:32;10.90;;;5.50;;
43248;SDS011;29216;51.248;6.808;2023-05-28T04:05:59;10.90;;;5.70;;
43248;SDS011;29216;51.248;6.808;2023-05-28T04:08:25;8.73;;;4.90;;
43248;SDS011;29216;51.248;6.808;2023-05-28T04:10:51;9.70;;;5.10;;
43248;SDS011;29216;51.248;6.808;2023-05-28T04:13:17;11.40;;;4.95;;
43248;SDS011;29216;51.248;6.808;2023-05-28T04:15:43;8.57;;;5.28;;
43248;SDS011;29216;51.248;6.808;2023-05-28T04:18:09;6.85;;;4.97;;
43248;SDS011;29216;51.248;6.808;2023-05-28T04:20:35;7.65;;;5.25;;
43248;SDS011;29216;51.248;6.808;2023-05-28T04:23:02;8.88;;;5.13;;
43248;SDS011;29216;51.248;6.808;2023-05-28T04:25:28;9.15;;;5.40;;
43248;SDS011;29216;51.248;6.808;2023-05-28T04:27:54;7.88;;;5.30;;
43248;SDS011;29216;51.248;6.808;2023-05-28T04:30:21;9.18;;;5.32;;
43248;SDS011;29216;51.248;6.808;2023-05-28T04:32:49;8.68;;;4.85;;
43248;SDS011;29216;51.248;6.808;2023-05-28T04:35:18;10.13;;;5.00;;
43248;SDS011;29216;51.248;6.808;2023-05-28T04:37:46;10.18;;;5.38;;
43248;SDS011;29216;51.248;6.808;2023-05-28T04:40:12;8.35;;;4.85;;
43248;SDS011;29216;51.248;6.808;2023-05-28T04:42:39;10.50;;;5.10;;
43248;SDS011;29216;51.248;6.808;2023-05-28T04:45:06;10.30;;;5.28;;
43248;SDS011;29216;51.248;6.808;2023-05-28T04:47:32;10.98;;;5.25;;
43248;SDS011;29216;51.248;6.808;2023-05-28T04:50:00;8.23;;;4.75;;
43248;SDS011;29216;51.248;6.808;2023-05-28T04:52:28;6.90;;;4.60;;
43248;SDS011;29216;51.248;6.808;2023-05-28T04:54:56;8.30;;;4.93;;
43248;SDS011;29216;51.248;6.808;2023-05-28T04:57:22;8.52;;;4.88;;
43248;SDS011;29216;51.248;6.808;2023-05-28T04:59:48;8.27;;;4.75;;
43248;SDS011;29216;51.248;6.808;2023-05-28T05:02:14;7.90;;;4.57;;
43248;SDS011;29216;51.248;6.808;2023-05-28T05:04:44;7.78;;;4.55;;
43248;SDS011;29216;51.248;6.808;2023-05-28T05:07:13;8.70;;;4.45;;
43248;SDS011;29216;51.248;6.808;2023-05-28T05:09:40;7.15;;;4.25;;
43248;SDS011;29216;51.248;6.808;2023-05-28T05:12:06;9.65;;;4.30;;
43248;SDS011;29216;51.248;6.808;2023-05-28T05:14:33;10.23;;;4.75;;
43248;SDS011;29216;51.248;6.808;2023-05-28T05:16:59;8.05;;;4.32;;
43248;SDS011;29216;51.248;6.808;2023-05-28T05:19:26;8.57;;;4.88;;
43248;SDS011;29216;51.248;6.808;2023-05-28T05:21:52;7.15;;;4.47;;
43248;SDS011;29216;51.248;6.808;2023-05-28T05:24:18;6.82;;;4.38;;
43248;SDS011;29216;51.248;6.808;2023-05-28T05:26:44;7.45;;;4.28;;
43248;SDS011;29216;51.248;6.808;2023-05-28T05:29:10;6.28;;;4.45;;
43248;SDS011;29216;51.248;6.808;2023-05-28T05:31:36;10.50;;;5.22;;
43248;SDS011;29216;51.248;6.808;2023-05-28T05:34:02;9.27;;;4.15;;
43248;SDS011;29216;51.248;6.808;2023-05-28T05:36:29;7.22;;;4.30;;
43248;SDS011;29216;51.248;6.808;2023-05-28T05:38:55;6.35;;;4.60;;
43248;SDS011;29216;51.248;6.808;2023-05-28T05:41:21;8.30;;;4.38;;
43248;SDS011;29216;51.248;6.808;2023-05-28T05:43:47;7.70;;;4.53;;
43248;SDS011;29216;51.248;6.808;2023-05-28T05:46:13;6.97;;;4.03;;
43248;SDS011;29216;51.248;6.808;2023-05-28T05:48:40;7.63;;;4.20;;
43248;SDS011;29216;51.248;6.808;2023-05-28T05:51:06;9.65;;;4.70;;
43248;SDS011;29216;51.248;6.808;2023-05-28T05:53:32;10.00;;;4.57;;
43248;SDS011;29216;51.248;6.808;2023-05-28T05:55:58;9.57;;;4.55;;
43248;SDS011;29216;51.248;6.808;2023-05-28T05:58:24;7.65;;;4.50;;
43248;SDS011;29216;51.248;6.808;2023-05-28T06:00:50;9.95;;;4.40;;
43248;SDS011;29216;51.248;6.808;2023-05-28T06:03:16;8.65;;;4.65;;
43248;SDS011;29216;51.248;6.808;2023-05-28T06:05:42;6.88;;;4.18;;
43248;SDS011;29216;51.248;6.808;2023-05-28T06:08:09;6.93;;;4.38;;
43248;SDS011;29216;51.248;6.808;2023-05-28T06:10:35;7.82;;;4.13;;
43248;SDS011;29216;51.248;6.808;2023-05-28T06:13:01;6.15;;;3.80;;
43248;SDS011;29216;51.248;6.808;2023-05-28T06:15:28;9.10;;;4.57;;
43248;SDS011;29216;51.248;6.808;2023-05-28T06:17:54;5.95;;;4.05;;
43248;SDS011;29216;51.248;6.808;2023-05-28T06:20:21;8.18;;;4.43;;
43248;SDS011;29216;51.248;6.808;2023-05-28T06:22:47;9.82;;;4.82;;
43248;SDS011;29216;51.248;6.808;2023-05-28T06:25:13;9.25;;;4.60;;
43248;SDS011;29216;51.248;6.808;2023-05-28T06:27:39;8.05;;;4.07;;
43248;SDS011;29216;51.248;6.808;2023-05-28T06:30:06;6.30;;;4.20;;
43248;SDS011;29216;51.248;6.808;2023-05-28T06:32:32;7.72;;;4.53;;
43248;SDS011;29216;51.248;6.808;2023-05-28T06:34:58;7.30;;;4.05;;
43248;SDS011;29216;51.248;6.808;2023-05-28T06:37:24;7.85;;;4.22;;
43248;SDS011;29216;51.248;6.808;2023-05-28T06:39:50;8.13;;;4.22;;
43248;SDS011;29216;51.248;6.808;2023-05-28T06:42:16;8.23;;;4.32;;
43248;SDS011;29216;51.248;6.808;2023-05-28T06:44:42;8.50;;;4.43;;
43248;SDS011;29216;51.248;6.808;2023-05-28T06:47:08;7.65;;;4.13;;
43248;SDS011;29216;51.248;6.808;2023-05-28T06:49:35;9.85;;;4.35;;
43248;SDS011;29216;51.248;6.808;2023-05-28T06:52:01;10.18;;;4.63;;
43248;SDS011;29216;51.248;6.808;2023-05-28T06:54:27;8.55;;;4.35;;
43248;SDS011;29216;51.248;6.808;2023-05-28T06:56:53;9.45;;;4.20;;
43248;SDS011;29216;51.248;6.808;2023-05-28T06:59:18;6.90;;;3.97;;
43248;SDS011;29216;51.248;6.808;2023-05-28T07:01:44;7.20;;;3.67;;
43248;SDS011;29216;51.248;6.808;2023-05-28T07:04:10;8.50;;;4.15;;
43248;SDS011;29216;51.248;6.808;2023-05-28T07:06:36;5.47;;;3.60;;
43248;SDS011;29216;51.248;6.808;2023-05-28T07:09:03;6.30;;;3.55;;
43248;SDS011;29216;51.248;6.808;2023-05-28T07:11:30;5.85;;;4.05;;
43248;SDS011;29216;51.248;6.808;2023-05-28T07:13:56;6.20;;;3.50;;
43248;SDS011;29216;51.248;6.808;2023-05-28T07:16:22;6.65;;;4.00;;
43248;SDS011;29216;51.248;6.808;2023-05-28T07:18:48;6.50;;;4.07;;
43248;SDS011;29216;51.248;6.808;2023-05-28T07:21:14;8.18;;;4.32;;
43248;SDS011;29216;51.248;6.808;2023-05-28T07:23:40;7.28;;;4.13;;
43248;SDS011;29216;51.248;6.808;2023-05-28T07:26:06;8.10;;;4.13;;
43248;SDS011;29216;51.248;6.808;2023-05-28T07:28:32;8.32;;;4.10;;
43248;SDS011;29216;51.248;6.808;2023-05-28T07:30:58;6.32;;;4.10;;
43248;SDS011;29216;51.248;6.808;2023-05-28T07:33:24;6.50;;;4.43;;
43248;SDS011;29216;51.248;6.808;2023-05-28T07:35:50;6.30;;;3.97;;
43248;SDS011;29216;51.248;6.808;2023-05-28T07:38:15;7.38;;;4.20;;
43248;SDS011;29216;51.248;6.808;2023-05-28T07:40:42;6.22;;;3.40;;
43248;SDS011;29216;51.248;6.808;2023-05-28T07:43:08;6.22;;;3.45;;
43248;SDS011;29216;51.248;6.808;2023-05-28T07:45:34;5.10;;;3.50;;
43248;SDS011;29216;51.248;6.808;2023-05-28T07:48:00;6.13;;;3.70;;
43248;SDS011;29216;51.248;6.808;2023-05-28T07:50:26;6.25;;;3.55;;
43248;SDS011;29216;51.248;6.808;2023-05-28T07:52:53;4.97;;;3.10;;
43248;SDS011;29216;51.248;6.808;2023-05-28T07:55:19;7.25;;;3.63;;
43248;SDS011;29216;51.248;6.808;2023-05-28T07:57:46;5.03;;;3.53;;
43248;SDS011;29216;51.248;6.808;2023-05-28T08:00:12;7.00;;;3.53;;
43248;SDS011;29216;51.248;6.808;2023-05-28T08:02:42;6.00;;;3.38;;
43248;SDS011;29216;51.248;6.808;2023-05-28T08:05:08;5.25;;;3.38;;
43248;SDS011;29216;51.248;6.808;2023-05-28T08:07:34;7.53;;;3.63;;
43248;SDS011;29216;51.248;6.808;2023-05-28T08:10:01;8.60;;;3.70;;
43248;SDS011;29216;51.248;6.808;2023-05-28T08:12:27;5.65;;;3.45;;
43248;SDS011;29216;51.248;6.808;2023-05-28T08:14:53;5.40;;;3.60;;
43248;SDS011;29216;51.248;6.808;2023-05-28T08:17:22;7.97;;;4.00;;
43248;SDS011;29216;51.248;6.808;2023-05-28T08:19:48;7.65;;;4.03;;
43248;SDS011;29216;51.248;6.808;2023-05-28T08:22:15;6.65;;;3.92;;
43248;SDS011;29216;51.248;6.808;2023-05-28T08:24:41;6.28;;;3.80;;
43248;SDS011;29216;51.248;6.808;2023-05-28T08:27:07;7.32;;;3.85;;
43248;SDS011;29216;51.248;6.808;2023-05-28T08:29:33;8.25;;;3.90;;
43248;SDS011;29216;51.248;6.808;2023-05-28T08:31:59;10.45;;;4.00;;
43248;SDS011;29216;51.248;6.808;2023-05-28T08:34:26;7.97;;;4.30;;
43248;SDS011;29216;51.248;6.808;2023-05-28T08:36:52;10.95;;;4.30;;
43248;SDS011;29216;51.248;6.808;2023-05-28T08:39:18;8.40;;;3.92;;
43248;SDS011;29216;51.248;6.808;2023-05-28T08:41:45;8.13;;;4.30;;
43248;SDS011;29216;51.248;6.808;2023-05-28T08:44:11;8.38;;;3.95;;
43248;SDS011;29216;51.248;6.808;2023-05-28T08:46:37;8.60;;;4.32;;
43248;SDS011;29216;51.248;6.808;2023-05-28T08:49:03;7.03;;;4.03;;
43248;SDS011;29216;51.248;6.808;2023-05-28T08:51:30;7.28;;;4.13;;
43248;SDS011;29216;51.248;6.808;2023-05-28T08:53:59;7.38;;;4.00;;
43248;SDS011;29216;51.248;6.808;2023-05-28T08:56:26;13.90;;;4.53;;
43248;SDS011;29216;51.248;6.808;2023-05-28T08:58:52;10.65;;;3.90;;
43248;SDS011;29216;51.248;6.808;2023-05-28T09:01:18;8.77;;;4.10;;
43248;SDS011;29216;51.248;6.808;2023-05-28T09:03:45;6.63;;;4.00;;
43248;SDS011;29216;51.248;6.808;2023-05-28T09:06:11;6.32;;;4.10;;
43248;SDS011;29216;51.248;6.808;2023-05-28T09:08:41;11.38;;;4.45;;
43248;SDS011;29216;51.248;6.808;2023-05-28T09:11:11;7.68;;;4.07;;
43248;SDS011;29216;51.248;6.808;2023-05-28T09:13:43;9.15;;;4.63;;
43248;SDS011;29216;51.248;6.808;2023-05-28T09:16:11;8.93;;;4.35;;
43248;SDS011;29216;51.248;6.808;2023-05-28T09:18:37;10.15;;;4.75;;
43248;SDS011;29216;51.248;6.808;2023-05-28T09:21:07;10.35;;;5.07;;
43248;SDS011;29216;51.248;6.808;2023-05-28T09:23:38;9.45;;;4.55;;
43248;SDS011;29216;51.248;6.808;2023-05-28T09:26:07;8.73;;;4.05;;
43248;SDS011;29216;51.248;6.808;2023-05-28T09:28:34;6.28;;;3.72;;
43248;SDS011;29216;51.248;6.808;2023-05-28T09:31:03;8.95;;;4.57;;
43248;SDS011;29216;51.248;6.808;2023-05-28T09:33:30;9.55;;;4.13;;
43248;SDS011;29216;51.248;6.808;2023-05-28T09:35:58;14.27;;;4.35;;
43248;SDS011;29216;51.248;6.808;2023-05-28T09:38:28;7.85;;;4.20;;
43248;SDS011;29216;51.248;6.808;2023-05-28T09:41:03;10.18;;;5.13;;
43248;SDS011;29216;51.248;6.808;2023-05-28T09:43:29;9.10;;;3.92;;
43248;SDS011;29216;51.248;6.808;2023-05-28T09:46:08;8.93;;;4.40;;
43248;SDS011;29216;51.248;6.808;2023-05-28T09:48:34;9.07;;;4.63;;
43248;SDS011;29216;51.248;6.808;2023-05-28T09:51:01;8.23;;;4.97;;
43248;SDS011;29216;51.248;6.808;2023-05-28T09:53:29;8.07;;;4.50;;
43248;SDS011;29216;51.248;6.808;2023-05-28T09:56:04;8.30;;;4.43;;
43248;SDS011;29216;51.248;6.808;2023-05-28T09:58:32;6.63;;;4.03;;
43248;SDS011;29216;51.248;6.808;2023-05-28T10:01:05;10.35;;;4.75;;
43248;SDS011;29216;51.248;6.808;2023-05-28T10:06:06;10.35;;;4.15;;
43248;SDS011;29216;51.248;6.808;2023-05-28T10:08:34;10.43;;;4.43;;
43248;SDS011;29216;51.248;6.808;2023-05-28T10:11:08;6.82;;;3.78;;
43248;SDS011;29216;51.248;6.808;2023-05-28T10:13:34;8.35;;;4.03;;
43248;SDS011;29216;51.248;6.808;2023-05-28T10:16:01;9.55;;;4.53;;
43248;SDS011;29216;51.248;6.808;2023-05-28T10:18:27;8.07;;;3.72;;
43248;SDS011;29216;51.248;6.808;2023-05-28T10:20:53;11.73;;;4.20;;
43248;SDS011;29216;51.248;6.808;2023-05-28T10:23:20;11.38;;;5.28;;
43248;SDS011;29216;51.248;6.808;2023-05-28T10:25:47;6.90;;;3.90;;
43248;SDS011;29216;51.248;6.808;2023-05-28T10:28:14;9.68;;;5.03;;
43248;SDS011;29216;51.248;6.808;2023-05-28T10:30:40;7.93;;;4.22;;
43248;SDS011;29216;51.248;6.808;2023-05-28T10:33:16;8.13;;;3.80;;
43248;SDS011;29216;51.248;6.808;2023-05-28T10:35:52;7.97;;;4.05;;
43248;SDS011;29216;51.248;6.808;2023-05-28T10:38:18;8.50;;;4.00;;
43248;SDS011;29216;51.248;6.808;2023-05-28T10:40:45;8.75;;;4.53;;
43248;SDS011;29216;51.248;6.808;2023-05-28T10:45:56;8.00;;;4.50;;
43248;SDS011;29216;51.248;6.808;2023-05-28T10:48:21;8.77;;;4.47;;
43248;SDS011;29216;51.248;6.808;2023-05-28T10:50:57;8.75;;;4.43;;
43248;SDS011;29216;51.248;6.808;2023-05-28T10:53:24;6.45;;;3.53;;
43248;SDS011;29216;51.248;6.808;2023-05-28T10:55:51;13.02;;;4.13;;
43248;SDS011;29216;51.248;6.808;2023-05-28T10:58:51;6.88;;;3.58;;
43248;SDS011;29216;51.248;6.808;2023-05-28T11:03:45;6.47;;;4.00;;
43248;SDS011;29216;51.248;6.808;2023-05-28T11:06:11;9.35;;;4.07;;
43248;SDS011;29216;51.248;6.808;2023-05-28T11:08:39;8.57;;;3.97;;
43248;SDS011;29216;51.248;6.808;2023-05-28T11:11:06;5.10;;;3.28;;
43248;SDS011;29216;51.248;6.808;2023-05-28T11:13:32;5.70;;;3.35;;
43248;SDS011;29216;51.248;6.808;2023-05-28T11:16:10;10.93;;;3.90;;
43248;SDS011;29216;51.248;6.808;2023-05-28T11:18:37;9.45;;;4.07;;
43248;SDS011;29216;51.248;6.808;2023-05-28T11:21:04;8.45;;;3.40;;
43248;SDS011;29216;51.248;6.808;2023-05-28T11:23:32;8.25;;;3.58;;
43248;SDS011;29216;51.248;6.808;2023-05-28T11:25:58;9.43;;;3.92;;
43248;SDS011;29216;51.248;6.808;2023-05-28T11:28:24;8.63;;;4.28;;
43248;SDS011;29216;51.248;6.808;2023-05-28T11:30:50;10.60;;;3.78;;
43248;SDS011;29216;51.248;6.808;2023-05-28T11:33:17;7.60;;;3.28;;
43248;SDS011;29216;51.248;6.808;2023-05-28T11:35:43;8.73;;;4.07;;
43248;SDS011;29216;51.248;6.808;2023-05-28T11:38:09;5.88;;;3.38;;
43248;SDS011;29216;51.248;6.808;2023-05-28T11:40:35;9.27;;;4.03;;
43248;SDS011;29216;51.248;6.808;2023-05-28T11:43:01;8.05;;;3.97;;
43248;SDS011;29216;51.248;6.808;2023-05-28T11:45:29;9.82;;;4.00;;
43248;SDS011;29216;51.248;6.808;2023-05-28T11:48:01;5.82;;;3.78;;
43248;SDS011;29216;51.248;6.808;2023-05-28T11:50:27;8.13;;;3.97;;
43248;SDS011;29216;51.248;6.808;2023-05-28T11:52:54;8.82;;;4.00;;
43248;SDS011;29216;51.248;6.808;2023-05-28T11:55:20;7.95;;;3.70;;
43248;SDS011;29216;51.248;6.808;2023-05-28T11:57:52;10.23;;;4.00;;
43248;SDS011;29216;51.248;6.808;2023-05-28T12:00:29;7.72;;;3.70;;
43248;SDS011;29216;51.248;6.808;2023-05-28T12:02:56;6.07;;;3.58;;
43248;SDS011;29216;51.248;6.808;2023-05-28T12:05:23;10.48;;;4.30;;
43248;SDS011;29216;51.248;6.808;2023-05-28T12:07:52;9.57;;;3.92;;
43248;SDS011;29216;51.248;6.808;2023-05-28T12:10:19;8.05;;;3.95;;
43248;SDS011;29216;51.248;6.808;2023-05-28T12:12:46;6.72;;;3.50;;
43248;SDS011;29216;51.248;6.808;2023-05-28T12:15:12;7.15;;;3.72;;
43248;SDS011;29216;51.248;6.808;2023-05-28T12:17:39;7.93;;;3.60;;
43248;SDS011;29216;51.248;6.808;2023-05-28T12:20:07;10.40;;;3.53;;
43248;SDS011;29216;51.248;6.808;2023-05-28T12:22:58;8.40;;;3.88;;
43248;SDS011;29216;51.248;6.808;2023-05-28T12:25:25;7.40;;;3.50;;
43248;SDS011;29216;51.248;6.808;2023-05-28T12:27:51;6.63;;;3.30;;
43248;SDS011;29216;51.248;6.808;2023-05-28T12:30:17;8.40;;;4.25;;
43248;SDS011;29216;51.248;6.808;2023-05-28T12:32:43;9.05;;;4.03;;
43248;SDS011;29216;51.248;6.808;2023-05-28T12:35:09;8.32;;;3.60;;
43248;SDS011;29216;51.248;6.808;2023-05-28T12:37:35;6.35;;;3.60;;
43248;SDS011;29216;51.248;6.808;2023-05-28T12:40:01;7.55;;;3.65;;
43248;SDS011;29216;51.248;6.808;2023-05-28T12:42:28;6.50;;;3.70;;
43248;SDS011;29216;51.248;6.808;2023-05-28T12:44:54;7.55;;;3.80;;
43248;SDS011;29216;51.248;6.808;2023-05-28T12:47:20;8.63;;;3.75;;
43248;SDS011;29216;51.248;6.808;2023-05-28T12:49:46;8.77;;;3.63;;
43248;SDS011;29216;51.248;6.808;2023-05-28T12:54:40;8.80;;;3.40;;
43248;SDS011;29216;51.248;6.808;2023-05-28T12:57:06;8.65;;;4.07;;
43248;SDS011;29216;51.248;6.808;2023-05-28T12:59:32;8.00;;;3.63;;
43248;SDS011;29216;51.248;6.808;2023-05-28T13:01:58;8.55;;;3.33;;
43248;SDS011;29216;51.248;6.808;2023-05-28T13:04:24;6.65;;;3.70;;
43248;SDS011;29216;51.248;6.808;2023-05-28T13:06:50;8.32;;;3.35;;
43248;SDS011;29216;51.248;6.808;2023-05-28T13:09:16;7.85;;;4.15;;
43248;SDS011;29216;51.248;6.808;2023-05-28T13:11:43;13.85;;;3.53;;
43248;SDS011;29216;51.248;6.808;2023-05-28T13:14:10;6.35;;;3.63;;
43248;SDS011;29216;51.248;6.808;2023-05-28T13:16:36;9.35;;;3.95;;
43248;SDS011;29216;51.248;6.808;2023-05-28T13:19:05;6.97;;;3.80;;
43248;SDS011;29216;51.248;6.808;2023-05-28T13:21:31;8.35;;;3.88;;
43248;SDS011;29216;51.248;6.808;2023-05-28T13:24:03;8.80;;;3.83;;
43248;SDS011;29216;51.248;6.808;2023-05-28T13:26:29;8.40;;;3.75;;
43248;SDS011;29216;51.248;6.808;2023-05-28T13:28:55;6.55;;;3.40;;
43248;SDS011;29216;51.248;6.808;2023-05-28T13:31:22;8.10;;;3.40;;
43248;SDS011;29216;51.248;6.808;2023-05-28T13:33:48;7.45;;;3.38;;
43248;SDS011;29216;51.248;6.808;2023-05-28T13:36:14;7.90;;;3.25;;
43248;SDS011;29216;51.248;6.808;2023-05-28T13:38:43;6.32;;;3.47;;
43248;SDS011;29216;51.248;6.808;2023-05-28T13:41:09;5.43;;;3.13;;
43248;SDS011;29216;51.248;6.808;2023-05-28T13:43:36;6.75;;;3.13;;
43248;SDS011;29216;51.248;6.808;2023-05-28T13:46:05;6.45;;;3.42;;
43248;SDS011;29216;51.248;6.808;2023-05-28T13:48:31;5.97;;;3.40;;
43248;SDS011;29216;51.248;6.808;2023-05-28T13:50:57;6.07;;;3.65;;
43248;SDS011;29216;51.248;6.808;2023-05-28T13:53:24;7.78;;;3.47;;
43248;SDS011;29216;51.248;6.808;2023-05-28T13:55:50;7.20;;;3.38;;
43248;SDS011;29216;51.248;6.808;2023-05-28T13:58:16;6.50;;;3.38;;
43248;SDS011;29216;51.248;6.808;2023-05-28T14:00:42;5.70;;;3.10;;
43248;SDS011;29216;51.248;6.808;2023-05-28T14:03:08;5.07;;;3.22;;
43248;SDS011;29216;51.248;6.808;2023-05-28T14:05:38;6.38;;;3.42;;
43248;SDS011;29216;51.248;6.808;2023-05-28T14:08:04;7.25;;;3.05;;
43248;SDS011;29216;51.248;6.808;2023-05-28T14:10:30;6.07;;;3.47;;
43248;SDS011;29216;51.248;6.808;2023-05-28T14:12:56;7.18;;;3.20;;
43248;SDS011;29216;51.248;6.808;2023-05-28T14:15:22;5.75;;;3.40;;
43248;SDS011;29216;51.248;6.808;2023-05-28T14:17:48;4.85;;;3.20;;
43248;SDS011;29216;51.248;6.808;2023-05-28T14:20:14;6.80;;;3.05;;
43248;SDS011;29216;51.248;6.808;2023-05-28T14:22:40;8.07;;;3.10;;
43248;SDS011;29216;51.248;6.808;2023-05-28T14:25:08;7.15;;;3.10;;
43248;SDS011;29216;51.248;6.808;2023-05-28T14:27:34;5.80;;;2.90;;
43248;SDS011;29216;51.248;6.808;2023-05-28T14:30:00;5.88;;;3.20;;
43248;SDS011;29216;51.248;6.808;2023-05-28T14:32:26;7.53;;;3.45;;
43248;SDS011;29216;51.248;6.808;2023-05-28T14:34:52;6.15;;;2.95;;
43248;SDS011;29216;51.248;6.808;2023-05-28T14:37:18;7.38;;;3.00;;
43248;SDS011;29216;51.248;6.808;2023-05-28T14:39:44;5.97;;;3.35;;
43248;SDS011;29216;51.248;6.808;2023-05-28T14:42:10;7.07;;;3.20;;
43248;SDS011;29216;51.248;6.808;2023-05-28T14:44:36;6.80;;;2.70;;
43248;SDS011;29216;51.248;6.808;2023-05-28T14:47:02;4.78;;;2.92;;
43248;SDS011;29216;51.248;6.808;2023-05-28T14:49:29;5.85;;;3.25;;
43248;SDS011;29216;51.248;6.808;2023-05-28T14:51:55;5.70;;;3.08;;
43248;SDS011;29216;51.248;6.808;2023-05-28T14:54:24;4.63;;;2.85;;
43248;SDS011;29216;51.248;6.808;2023-05-28T14:56:51;5.53;;;3.05;;